sensor_id;sensor_type;location;lat;lon;timestamp;temperature;humidity
75621;DHT22;64574;48.506;-2.750;2023-05-18T00:01:47;12.50;67.50
75621;DHT22;64574;48.506;-2.750;2023-05-18T00:04:12;12.50;67.30
75621;DHT22;64574;48.506;-2.750;2023-05-18T00:06:38;12.40;67.50
75621;DHT22;64574;48.506;-2.750;2023-05-18T00:09:04;12.30;67.70
75621;DHT22;64574;48.506;-2.750;2023-05-18T00:11:30;12.30;68.00
75621;DHT22;64574;48.506;-2.750;2023-05-18T00:13:56;12.20;68.20
75621;DHT22;64574;48.506;-2.750;2023-05-18T00:16:22;12.20;68.30
75621;DHT22;64574;48.506;-2.750;2023-05-18T00:18:48;12.30;68.20
75621;DHT22;64574;48.506;-2.750;2023-05-18T00:21:13;12.40;68.00
75621;DHT22;64574;48.506;-2.750;2023-05-18T00:23:40;12.40;67.80
75621;DHT22;64574;48.506;-2.750;2023-05-18T00:26:07;12.30;67.90
75621;DHT22;64574;48.506;-2.750;2023-05-18T00:28:32;12.30;67.60
75621;DHT22;64574;48.506;-2.750;2023-05-18T00:30:58;12.20;67.10
75621;DHT22;64574;48.506;-2.750;2023-05-18T00:33:24;12.10;67.10
75621;DHT22;64574;48.506;-2.750;2023-05-18T00:35:51;12.10;67.00
75621;DHT22;64574;48.506;-2.750;2023-05-18T00:38:17;12.10;66.90
75621;DHT22;64574;48.506;-2.750;2023-05-18T00:40:42;12.00;67.10
75621;DHT22;64574;48.506;-2.750;2023-05-18T00:43:09;12.00;67.30
75621;DHT22;64574;48.506;-2.750;2023-05-18T00:45:35;12.10;67.30
75621;DHT22;64574;48.506;-2.750;2023-05-18T00:48:00;12.10;67.00
75621;DHT22;64574;48.506;-2.750;2023-05-18T00:50:26;12.00;67.50
75621;DHT22;64574;48.506;-2.750;2023-05-18T00:52:52;12.00;67.80
75621;DHT22;64574;48.506;-2.750;2023-05-18T00:55:18;12.00;68.00
75621;DHT22;64574;48.506;-2.750;2023-05-18T00:57:43;12.10;69.30
75621;DHT22;64574;48.506;-2.750;2023-05-18T01:00:13;12.20;70.20
75621;DHT22;64574;48.506;-2.750;2023-05-18T01:02:39;12.30;70.30
75621;DHT22;64574;48.506;-2.750;2023-05-18T01:05:10;12.30;70.50
75621;DHT22;64574;48.506;-2.750;2023-05-18T01:07:40;12.30;71.00
75621;DHT22;64574;48.506;-2.750;2023-05-18T01:10:10;12.30;71.00
75621;DHT22;64574;48.506;-2.750;2023-05-18T01:12:37;12.20;71.30
75621;DHT22;64574;48.506;-2.750;2023-05-18T01:15:13;12.20;71.50
75621;DHT22;64574;48.506;-2.750;2023-05-18T01:23:16;12.20;71.80
75621;DHT22;64574;48.506;-2.750;2023-05-18T01:28:32;12.00;72.30
75621;DHT22;64574;48.506;-2.750;2023-05-18T01:30:58;12.10;72.50
75621;DHT22;64574;48.506;-2.750;2023-05-18T01:33:24;12.30;72.20
75621;DHT22;64574;48.506;-2.750;2023-05-18T01:35:50;12.20;72.20
75621;DHT22;64574;48.506;-2.750;2023-05-18T01:38:21;12.20;72.20
75621;DHT22;64574;48.506;-2.750;2023-05-18T01:43:33;12.20;71.00
75621;DHT22;64574;48.506;-2.750;2023-05-18T01:49:31;12.00;70.60
75621;DHT22;64574;48.506;-2.750;2023-05-18T01:52:03;12.00;70.10
75621;DHT22;64574;48.506;-2.750;2023-05-18T01:54:31;11.90;70.20
75621;DHT22;64574;48.506;-2.750;2023-05-18T01:56:58;11.70;70.30
75621;DHT22;64574;48.506;-2.750;2023-05-18T01:59:24;11.70;70.70
75621;DHT22;64574;48.506;-2.750;2023-05-18T02:01:50;11.50;71.20
75621;DHT22;64574;48.506;-2.750;2023-05-18T02:04:16;11.40;71.80
75621;DHT22;64574;48.506;-2.750;2023-05-18T02:06:42;11.40;72.00
75621;DHT22;64574;48.506;-2.750;2023-05-18T02:09:07;11.30;72.00
75621;DHT22;64574;48.506;-2.750;2023-05-18T02:11:33;11.40;72.00
75621;DHT22;64574;48.506;-2.750;2023-05-18T02:13:59;11.40;72.30
75621;DHT22;64574;48.506;-2.750;2023-05-18T02:16:25;11.40;72.10
75621;DHT22;64574;48.506;-2.750;2023-05-18T02:18:51;11.50;71.90
75621;DHT22;64574;48.506;-2.750;2023-05-18T02:21:17;11.50;72.20
75621;DHT22;64574;48.506;-2.750;2023-05-18T02:23:43;11.40;72.60
75621;DHT22;64574;48.506;-2.750;2023-05-18T02:26:09;11.30;72.80
75621;DHT22;64574;48.506;-2.750;2023-05-18T02:28:35;11.30;72.60
75621;DHT22;64574;48.506;-2.750;2023-05-18T02:31:08;11.40;72.40
75621;DHT22;64574;48.506;-2.750;2023-05-18T02:33:33;11.40;72.20
75621;DHT22;64574;48.506;-2.750;2023-05-18T02:36:08;11.30;72.50
75621;DHT22;64574;48.506;-2.750;2023-05-18T02:38:41;11.30;72.50
75621;DHT22;64574;48.506;-2.750;2023-05-18T02:41:08;11.20;72.60
75621;DHT22;64574;48.506;-2.750;2023-05-18T02:43:34;11.30;72.60
75621;DHT22;64574;48.506;-2.750;2023-05-18T02:46:00;11.30;72.50
75621;DHT22;64574;48.506;-2.750;2023-05-18T02:48:26;11.10;72.80
75621;DHT22;64574;48.506;-2.750;2023-05-18T02:50:52;11.00;73.30
75621;DHT22;64574;48.506;-2.750;2023-05-18T02:53:19;11.10;73.60
75621;DHT22;64574;48.506;-2.750;2023-05-18T02:55:45;11.10;73.30
75621;DHT22;64574;48.506;-2.750;2023-05-18T02:58:12;11.10;73.50
75621;DHT22;64574;48.506;-2.750;2023-05-18T03:00:40;11.10;73.30
75621;DHT22;64574;48.506;-2.750;2023-05-18T03:03:06;11.10;73.30
75621;DHT22;64574;48.506;-2.750;2023-05-18T03:05:37;11.20;73.20
75621;DHT22;64574;48.506;-2.750;2023-05-18T03:08:03;11.30;72.80
75621;DHT22;64574;48.506;-2.750;2023-05-18T03:10:29;11.40;72.50
75621;DHT22;64574;48.506;-2.750;2023-05-18T03:12:55;11.40;72.30
75621;DHT22;64574;48.506;-2.750;2023-05-18T03:15:20;11.50;72.20
75621;DHT22;64574;48.506;-2.750;2023-05-18T03:17:46;11.50;72.00
75621;DHT22;64574;48.506;-2.750;2023-05-18T03:20:12;11.30;72.20
75621;DHT22;64574;48.506;-2.750;2023-05-18T03:22:40;11.30;72.50
75621;DHT22;64574;48.506;-2.750;2023-05-18T03:25:06;11.10;73.30
75621;DHT22;64574;48.506;-2.750;2023-05-18T03:27:32;11.00;73.60
75621;DHT22;64574;48.506;-2.750;2023-05-18T03:29:58;10.90;74.10
75621;DHT22;64574;48.506;-2.750;2023-05-18T03:32:24;10.90;74.40
75621;DHT22;64574;48.506;-2.750;2023-05-18T03:34:53;11.10;73.20
75621;DHT22;64574;48.506;-2.750;2023-05-18T03:37:19;10.80;73.70
75621;DHT22;64574;48.506;-2.750;2023-05-18T03:39:44;10.80;73.90
75621;DHT22;64574;48.506;-2.750;2023-05-18T03:42:10;10.70;74.10
75621;DHT22;64574;48.506;-2.750;2023-05-18T03:44:36;10.70;74.10
75621;DHT22;64574;48.506;-2.750;2023-05-18T03:47:01;10.60;74.70
75621;DHT22;64574;48.506;-2.750;2023-05-18T03:49:27;10.70;74.50
75621;DHT22;64574;48.506;-2.750;2023-05-18T03:51:54;10.70;74.40
75621;DHT22;64574;48.506;-2.750;2023-05-18T03:54:21;10.60;74.60
75621;DHT22;64574;48.506;-2.750;2023-05-18T03:56:46;10.60;74.80
75621;DHT22;64574;48.506;-2.750;2023-05-18T03:59:13;10.50;74.90
75621;DHT22;64574;48.506;-2.750;2023-05-18T04:01:38;10.60;75.20
75621;DHT22;64574;48.506;-2.750;2023-05-18T04:04:07;10.60;75.00
75621;DHT22;64574;48.506;-2.750;2023-05-18T04:06:33;10.50;75.10
75621;DHT22;64574;48.506;-2.750;2023-05-18T04:09:02;10.60;74.60
75621;DHT22;64574;48.506;-2.750;2023-05-18T04:11:29;10.60;74.70
75621;DHT22;64574;48.506;-2.750;2023-05-18T04:13:55;10.50;75.10
75621;DHT22;64574;48.506;-2.750;2023-05-18T04:16:22;10.60;75.00
75621;DHT22;64574;48.506;-2.750;2023-05-18T04:18:48;10.60;74.60
75621;DHT22;64574;48.506;-2.750;2023-05-18T04:21:14;10.50;74.80
75621;DHT22;64574;48.506;-2.750;2023-05-18T04:23:40;10.50;74.80
75621;DHT22;64574;48.506;-2.750;2023-05-18T04:26:06;10.50;74.80
75621;DHT22;64574;48.506;-2.750;2023-05-18T04:28:33;10.50;74.80
75621;DHT22;64574;48.506;-2.750;2023-05-18T04:30:59;10.50;74.60
75621;DHT22;64574;48.506;-2.750;2023-05-18T04:33:27;10.60;74.50
75621;DHT22;64574;48.506;-2.750;2023-05-18T04:35:53;10.40;74.80
75621;DHT22;64574;48.506;-2.750;2023-05-18T04:38:20;10.30;75.00
75621;DHT22;64574;48.506;-2.750;2023-05-18T04:40:48;10.40;75.40
75621;DHT22;64574;48.506;-2.750;2023-05-18T04:43:18;10.30;75.20
75621;DHT22;64574;48.506;-2.750;2023-05-18T04:45:45;10.40;75.10
75621;DHT22;64574;48.506;-2.750;2023-05-18T04:48:12;10.30;75.50
75621;DHT22;64574;48.506;-2.750;2023-05-18T04:50:38;10.40;75.20
75621;DHT22;64574;48.506;-2.750;2023-05-18T04:53:04;10.30;75.20
75621;DHT22;64574;48.506;-2.750;2023-05-18T04:55:32;10.40;75.50
75621;DHT22;64574;48.506;-2.750;2023-05-18T04:57:58;10.40;75.00
75621;DHT22;64574;48.506;-2.750;2023-05-18T05:00:26;10.30;75.20
75621;DHT22;64574;48.506;-2.750;2023-05-18T05:02:54;10.40;75.30
75621;DHT22;64574;48.506;-2.750;2023-05-18T05:05:20;10.40;74.80
75621;DHT22;64574;48.506;-2.750;2023-05-18T05:07:48;10.50;74.80
75621;DHT22;64574;48.506;-2.750;2023-05-18T05:10:15;10.50;74.80
75621;DHT22;64574;48.506;-2.750;2023-05-18T05:12:40;10.50;74.70
75621;DHT22;64574;48.506;-2.750;2023-05-18T05:15:07;10.50;74.60
75621;DHT22;64574;48.506;-2.750;2023-05-18T05:17:34;10.60;74.80
75621;DHT22;64574;48.506;-2.750;2023-05-18T05:20:00;10.60;74.50
75621;DHT22;64574;48.506;-2.750;2023-05-18T05:22:25;10.50;74.40
75621;DHT22;64574;48.506;-2.750;2023-05-18T05:24:51;10.40;75.20
75621;DHT22;64574;48.506;-2.750;2023-05-18T05:27:17;10.50;75.10
75621;DHT22;64574;48.506;-2.750;2023-05-18T05:29:45;10.60;75.00
75621;DHT22;64574;48.506;-2.750;2023-05-18T05:32:11;10.80;73.90
75621;DHT22;64574;48.506;-2.750;2023-05-18T05:34:37;10.60;74.10
75621;DHT22;64574;48.506;-2.750;2023-05-18T05:37:03;10.60;74.40
75621;DHT22;64574;48.506;-2.750;2023-05-18T05:39:29;10.60;75.20
75621;DHT22;64574;48.506;-2.750;2023-05-18T05:41:55;10.80;74.40
75621;DHT22;64574;48.506;-2.750;2023-05-18T05:44:21;10.80;74.30
75621;DHT22;64574;48.506;-2.750;2023-05-18T05:46:47;10.80;74.50
75621;DHT22;64574;48.506;-2.750;2023-05-18T05:49:12;10.90;74.50
75621;DHT22;64574;48.506;-2.750;2023-05-18T05:51:38;11.00;73.80
75621;DHT22;64574;48.506;-2.750;2023-05-18T05:54:03;11.10;73.50
75621;DHT22;64574;48.506;-2.750;2023-05-18T05:56:29;11.10;73.60
75621;DHT22;64574;48.506;-2.750;2023-05-18T05:58:55;11.10;73.70
75621;DHT22;64574;48.506;-2.750;2023-05-18T06:01:20;11.10;73.30
75621;DHT22;64574;48.506;-2.750;2023-05-18T06:03:46;11.00;73.90
75621;DHT22;64574;48.506;-2.750;2023-05-18T06:06:13;11.10;74.00
75621;DHT22;64574;48.506;-2.750;2023-05-18T06:08:39;11.00;74.10
75621;DHT22;64574;48.506;-2.750;2023-05-18T06:11:04;11.10;74.20
75621;DHT22;64574;48.506;-2.750;2023-05-18T06:13:30;11.10;74.00
75621;DHT22;64574;48.506;-2.750;2023-05-18T06:15:56;11.20;73.90
75621;DHT22;64574;48.506;-2.750;2023-05-18T06:18:22;11.30;73.90
75621;DHT22;64574;48.506;-2.750;2023-05-18T06:20:48;11.40;73.80
75621;DHT22;64574;48.506;-2.750;2023-05-18T06:23:14;11.40;73.90
75621;DHT22;64574;48.506;-2.750;2023-05-18T06:25:39;11.40;74.00
75621;DHT22;64574;48.506;-2.750;2023-05-18T06:28:05;11.60;73.60
75621;DHT22;64574;48.506;-2.750;2023-05-18T06:30:31;11.50;73.40
75621;DHT22;64574;48.506;-2.750;2023-05-18T06:32:56;11.70;73.40
75621;DHT22;64574;48.506;-2.750;2023-05-18T06:35:22;11.70;73.30
75621;DHT22;64574;48.506;-2.750;2023-05-18T06:37:49;11.70;73.20
75621;DHT22;64574;48.506;-2.750;2023-05-18T06:40:14;11.70;73.30
75621;DHT22;64574;48.506;-2.750;2023-05-18T06:42:40;11.80;73.60
75621;DHT22;64574;48.506;-2.750;2023-05-18T06:45:06;11.70;73.70
75621;DHT22;64574;48.506;-2.750;2023-05-18T06:47:32;11.90;73.50
75621;DHT22;64574;48.506;-2.750;2023-05-18T06:49:57;11.90;73.40
75621;DHT22;64574;48.506;-2.750;2023-05-18T06:52:23;11.90;73.30
75621;DHT22;64574;48.506;-2.750;2023-05-18T06:54:49;11.90;73.20
75621;DHT22;64574;48.506;-2.750;2023-05-18T06:57:14;12.00;73.30
75621;DHT22;64574;48.506;-2.750;2023-05-18T06:59:40;12.00;73.30
75621;DHT22;64574;48.506;-2.750;2023-05-18T07:02:06;11.90;73.50
75621;DHT22;64574;48.506;-2.750;2023-05-18T07:04:31;12.10;73.40
75621;DHT22;64574;48.506;-2.750;2023-05-18T07:06:57;12.30;72.90
75621;DHT22;64574;48.506;-2.750;2023-05-18T07:09:23;12.30;72.90
75621;DHT22;64574;48.506;-2.750;2023-05-18T07:11:49;12.40;73.00
75621;DHT22;64574;48.506;-2.750;2023-05-18T07:14:15;12.40;72.90
75621;DHT22;64574;48.506;-2.750;2023-05-18T07:16:41;12.60;72.30
75621;DHT22;64574;48.506;-2.750;2023-05-18T07:19:08;12.70;71.70
75621;DHT22;64574;48.506;-2.750;2023-05-18T07:21:34;12.70;71.90
75621;DHT22;64574;48.506;-2.750;2023-05-18T07:23:59;12.90;71.80
75621;DHT22;64574;48.506;-2.750;2023-05-18T07:26:25;12.80;71.30
75621;DHT22;64574;48.506;-2.750;2023-05-18T07:28:51;12.90;71.40
75621;DHT22;64574;48.506;-2.750;2023-05-18T07:31:17;13.00;71.20
75621;DHT22;64574;48.506;-2.750;2023-05-18T07:33:43;13.00;71.00
75621;DHT22;64574;48.506;-2.750;2023-05-18T07:36:09;13.00;71.20
75621;DHT22;64574;48.506;-2.750;2023-05-18T07:38:35;13.10;70.90
75621;DHT22;64574;48.506;-2.750;2023-05-18T07:41:00;13.10;71.00
75621;DHT22;64574;48.506;-2.750;2023-05-18T07:43:26;13.20;70.70
75621;DHT22;64574;48.506;-2.750;2023-05-18T07:45:51;13.30;70.80
75621;DHT22;64574;48.506;-2.750;2023-05-18T07:48:17;13.30;70.50
75621;DHT22;64574;48.506;-2.750;2023-05-18T07:50:43;13.20;71.20
75621;DHT22;64574;48.506;-2.750;2023-05-18T07:53:09;13.30;70.80
75621;DHT22;64574;48.506;-2.750;2023-05-18T07:55:34;13.50;70.60
75621;DHT22;64574;48.506;-2.750;2023-05-18T07:58:00;13.50;70.20
75621;DHT22;64574;48.506;-2.750;2023-05-18T08:00:26;13.60;69.90
75621;DHT22;64574;48.506;-2.750;2023-05-18T08:02:52;13.60;69.90
75621;DHT22;64574;48.506;-2.750;2023-05-18T08:05:18;13.60;69.20
75621;DHT22;64574;48.506;-2.750;2023-05-18T08:07:47;13.60;69.20
75621;DHT22;64574;48.506;-2.750;2023-05-18T08:10:12;13.60;69.50
75621;DHT22;64574;48.506;-2.750;2023-05-18T08:12:38;13.80;69.10
75621;DHT22;64574;48.506;-2.750;2023-05-18T08:15:04;13.70;69.00
75621;DHT22;64574;48.506;-2.750;2023-05-18T08:17:30;13.50;69.20
75621;DHT22;64574;48.506;-2.750;2023-05-18T08:19:56;13.50;69.60
75621;DHT22;64574;48.506;-2.750;2023-05-18T08:22:21;13.50;70.30
75621;DHT22;64574;48.506;-2.750;2023-05-18T08:24:47;13.70;69.50
75621;DHT22;64574;48.506;-2.750;2023-05-18T08:27:13;13.90;69.20
75621;DHT22;64574;48.506;-2.750;2023-05-18T08:29:38;13.90;69.10
75621;DHT22;64574;48.506;-2.750;2023-05-18T08:32:05;14.00;69.10
75621;DHT22;64574;48.506;-2.750;2023-05-18T08:34:31;14.10;68.80
75621;DHT22;64574;48.506;-2.750;2023-05-18T08:36:57;14.10;68.70
75621;DHT22;64574;48.506;-2.750;2023-05-18T08:39:22;14.00;69.40
75621;DHT22;64574;48.506;-2.750;2023-05-18T08:42:00;14.10;69.70
75621;DHT22;64574;48.506;-2.750;2023-05-18T08:44:33;14.40;68.80
75621;DHT22;64574;48.506;-2.750;2023-05-18T08:46:59;14.60;68.20
75621;DHT22;64574;48.506;-2.750;2023-05-18T08:49:26;14.60;67.50
75621;DHT22;64574;48.506;-2.750;2023-05-18T08:51:56;14.50;67.80
75621;DHT22;64574;48.506;-2.750;2023-05-18T08:54:25;14.70;67.70
75621;DHT22;64574;48.506;-2.750;2023-05-18T08:56:52;14.50;66.80
75621;DHT22;64574;48.506;-2.750;2023-05-18T08:59:18;14.60;66.90
75621;DHT22;64574;48.506;-2.750;2023-05-18T09:01:46;14.70;66.70
75621;DHT22;64574;48.506;-2.750;2023-05-18T09:04:12;14.90;66.40
75621;DHT22;64574;48.506;-2.750;2023-05-18T09:06:38;15.00;65.00
75621;DHT22;64574;48.506;-2.750;2023-05-18T09:09:04;15.00;64.60
75621;DHT22;64574;48.506;-2.750;2023-05-18T09:11:32;15.30;64.50
75621;DHT22;64574;48.506;-2.750;2023-05-18T09:13:59;15.40;63.90
75621;DHT22;64574;48.506;-2.750;2023-05-18T09:16:25;15.30;63.80
75621;DHT22;64574;48.506;-2.750;2023-05-18T09:18:51;15.40;64.00
75621;DHT22;64574;48.506;-2.750;2023-05-18T09:21:16;15.40;63.60
75621;DHT22;64574;48.506;-2.750;2023-05-18T09:23:42;15.60;64.10
75621;DHT22;64574;48.506;-2.750;2023-05-18T09:26:08;15.70;64.00
75621;DHT22;64574;48.506;-2.750;2023-05-18T09:28:36;15.60;63.70
75621;DHT22;64574;48.506;-2.750;2023-05-18T09:31:03;15.80;63.70
75621;DHT22;64574;48.506;-2.750;2023-05-18T09:33:33;16.00;63.20
75621;DHT22;64574;48.506;-2.750;2023-05-18T09:35:59;15.70;62.40
75621;DHT22;64574;48.506;-2.750;2023-05-18T09:38:27;15.60;62.90
75621;DHT22;64574;48.506;-2.750;2023-05-18T09:40:52;15.80;63.20
75621;DHT22;64574;48.506;-2.750;2023-05-18T09:43:19;16.00;63.10
75621;DHT22;64574;48.506;-2.750;2023-05-18T09:45:47;16.00;62.90
75621;DHT22;64574;48.506;-2.750;2023-05-18T09:48:16;15.90;63.20
75621;DHT22;64574;48.506;-2.750;2023-05-18T09:50:43;16.00;63.30
75621;DHT22;64574;48.506;-2.750;2023-05-18T09:53:09;16.00;63.40
75621;DHT22;64574;48.506;-2.750;2023-05-18T09:55:46;16.00;63.70
75621;DHT22;64574;48.506;-2.750;2023-05-18T09:58:12;16.10;64.00
75621;DHT22;64574;48.506;-2.750;2023-05-18T10:00:44;16.30;63.90
75621;DHT22;64574;48.506;-2.750;2023-05-18T10:03:18;16.10;63.90
75621;DHT22;64574;48.506;-2.750;2023-05-18T10:05:44;16.00;64.10
75621;DHT22;64574;48.506;-2.750;2023-05-18T10:08:12;16.00;64.20
75621;DHT22;64574;48.506;-2.750;2023-05-18T10:10:40;16.00;63.70
75621;DHT22;64574;48.506;-2.750;2023-05-18T10:13:11;16.00;63.90
75621;DHT22;64574;48.506;-2.750;2023-05-18T10:15:52;16.20;63.50
75621;DHT22;64574;48.506;-2.750;2023-05-18T10:18:24;16.20;62.20
75621;DHT22;64574;48.506;-2.750;2023-05-18T10:20:52;16.20;62.10
75621;DHT22;64574;48.506;-2.750;2023-05-18T10:23:19;16.20;61.90
75621;DHT22;64574;48.506;-2.750;2023-05-18T10:25:46;16.00;62.90
75621;DHT22;64574;48.506;-2.750;2023-05-18T10:28:22;16.00;63.00
75621;DHT22;64574;48.506;-2.750;2023-05-18T10:30:56;16.00;63.00
75621;DHT22;64574;48.506;-2.750;2023-05-18T10:33:26;16.00;63.40
75621;DHT22;64574;48.506;-2.750;2023-05-18T10:35:53;15.90;63.80
75621;DHT22;64574;48.506;-2.750;2023-05-18T10:38:22;15.60;63.50
75621;DHT22;64574;48.506;-2.750;2023-05-18T10:40:50;15.70;63.70
75621;DHT22;64574;48.506;-2.750;2023-05-18T10:43:18;15.80;63.90
75621;DHT22;64574;48.506;-2.750;2023-05-18T10:45:55;15.80;64.60
75621;DHT22;64574;48.506;-2.750;2023-05-18T10:48:22;16.00;64.80
75621;DHT22;64574;48.506;-2.750;2023-05-18T10:50:49;15.80;64.10
75621;DHT22;64574;48.506;-2.750;2023-05-18T10:53:23;15.50;65.90
75621;DHT22;64574;48.506;-2.750;2023-05-18T10:55:51;15.80;65.50
75621;DHT22;64574;48.506;-2.750;2023-05-18T10:58:18;16.10;65.20
75621;DHT22;64574;48.506;-2.750;2023-05-18T11:00:49;16.00;65.60
75621;DHT22;64574;48.506;-2.750;2023-05-18T11:03:17;15.90;65.50
75621;DHT22;64574;48.506;-2.750;2023-05-18T11:05:49;15.60;66.80
75621;DHT22;64574;48.506;-2.750;2023-05-18T11:08:24;15.70;67.00
75621;DHT22;64574;48.506;-2.750;2023-05-18T11:11:01;15.70;66.90
75621;DHT22;64574;48.506;-2.750;2023-05-18T11:13:31;15.60;66.30
75621;DHT22;64574;48.506;-2.750;2023-05-18T11:18:44;15.60;67.40
75621;DHT22;64574;48.506;-2.750;2023-05-18T11:24:12;15.90;66.20
75621;DHT22;64574;48.506;-2.750;2023-05-18T11:26:39;15.60;67.20
75621;DHT22;64574;48.506;-2.750;2023-05-18T11:29:15;15.60;65.90
75621;DHT22;64574;48.506;-2.750;2023-05-18T11:31:50;15.60;65.60
75621;DHT22;64574;48.506;-2.750;2023-05-18T11:37:01;15.60;65.30
75621;DHT22;64574;48.506;-2.750;2023-05-18T11:39:27;15.60;64.30
75621;DHT22;64574;48.506;-2.750;2023-05-18T11:42:18;15.60;63.50
75621;DHT22;64574;48.506;-2.750;2023-05-18T11:44:51;15.60;63.40
75621;DHT22;64574;48.506;-2.750;2023-05-18T11:47:18;15.80;63.10
75621;DHT22;64574;48.506;-2.750;2023-05-18T11:49:47;15.80;63.40
75621;DHT22;64574;48.506;-2.750;2023-05-18T11:52:23;15.70;62.60
75621;DHT22;64574;48.506;-2.750;2023-05-18T11:54:59;15.90;63.20
75621;DHT22;64574;48.506;-2.750;2023-05-18T12:00:01;15.80;63.90
75621;DHT22;64574;48.506;-2.750;2023-05-18T12:02:32;15.70;63.80
75621;DHT22;64574;48.506;-2.750;2023-05-18T12:04:59;15.70;64.40
75621;DHT22;64574;48.506;-2.750;2023-05-18T12:07:27;16.00;65.10
75621;DHT22;64574;48.506;-2.750;2023-05-18T12:10:02;16.00;64.50
75621;DHT22;64574;48.506;-2.750;2023-05-18T12:12:28;16.00;65.30
75621;DHT22;64574;48.506;-2.750;2023-05-18T12:14:59;16.00;65.70
75621;DHT22;64574;48.506;-2.750;2023-05-18T12:17:41;15.80;65.30
75621;DHT22;64574;48.506;-2.750;2023-05-18T12:20:28;15.50;65.60
75621;DHT22;64574;48.506;-2.750;2023-05-18T12:22:55;15.60;66.00
75621;DHT22;64574;48.506;-2.750;2023-05-18T12:25:25;15.60;64.50
75621;DHT22;64574;48.506;-2.750;2023-05-18T12:27:52;15.60;63.60
75621;DHT22;64574;48.506;-2.750;2023-05-18T12:30:19;15.60;62.60
75621;DHT22;64574;48.506;-2.750;2023-05-18T12:32:46;15.60;62.70
75621;DHT22;64574;48.506;-2.750;2023-05-18T12:35:12;15.80;62.20
75621;DHT22;64574;48.506;-2.750;2023-05-18T12:37:44;15.80;61.90
75621;DHT22;64574;48.506;-2.750;2023-05-18T12:40:14;15.60;61.60
75621;DHT22;64574;48.506;-2.750;2023-05-18T12:45:20;15.90;62.10
75621;DHT22;64574;48.506;-2.750;2023-05-18T12:47:46;16.00;63.50
75621;DHT22;64574;48.506;-2.750;2023-05-18T12:50:12;15.90;62.70
75621;DHT22;64574;48.506;-2.750;2023-05-18T12:52:38;15.60;63.20
75621;DHT22;64574;48.506;-2.750;2023-05-18T12:55:07;15.60;62.80
75621;DHT22;64574;48.506;-2.750;2023-05-18T12:57:36;15.70;63.60
75621;DHT22;64574;48.506;-2.750;2023-05-18T13:00:06;16.00;61.10
75621;DHT22;64574;48.506;-2.750;2023-05-18T13:02:35;15.90;60.70
75621;DHT22;64574;48.506;-2.750;2023-05-18T13:07:26;16.00;60.40
75621;DHT22;64574;48.506;-2.750;2023-05-18T13:09:52;16.10;60.20
75621;DHT22;64574;48.506;-2.750;2023-05-18T13:12:44;16.30;60.50
75621;DHT22;64574;48.506;-2.750;2023-05-18T13:17:36;16.10;59.30
75621;DHT22;64574;48.506;-2.750;2023-05-18T13:20:02;16.20;60.30
75621;DHT22;64574;48.506;-2.750;2023-05-18T13:22:29;16.20;59.90
75621;DHT22;64574;48.506;-2.750;2023-05-18T13:24:55;16.00;62.40
75621;DHT22;64574;48.506;-2.750;2023-05-18T13:27:21;16.10;64.10
75621;DHT22;64574;48.506;-2.750;2023-05-18T13:29:46;16.20;65.40
75621;DHT22;64574;48.506;-2.750;2023-05-18T13:32:12;15.90;67.30
75621;DHT22;64574;48.506;-2.750;2023-05-18T13:34:37;15.80;68.20
75621;DHT22;64574;48.506;-2.750;2023-05-18T13:37:03;15.60;69.00
75621;DHT22;64574;48.506;-2.750;2023-05-18T13:39:29;15.50;70.00
75621;DHT22;64574;48.506;-2.750;2023-05-18T13:41:54;15.50;69.70
75621;DHT22;64574;48.506;-2.750;2023-05-18T13:44:20;15.60;69.60
75621;DHT22;64574;48.506;-2.750;2023-05-18T13:46:46;15.70;69.80
75621;DHT22;64574;48.506;-2.750;2023-05-18T13:49:12;15.80;69.20
75621;DHT22;64574;48.506;-2.750;2023-05-18T13:51:38;15.60;69.00
75621;DHT22;64574;48.506;-2.750;2023-05-18T13:54:04;15.90;68.40
75621;DHT22;64574;48.506;-2.750;2023-05-18T13:56:29;16.00;67.90
75621;DHT22;64574;48.506;-2.750;2023-05-18T13:58:55;15.80;68.20
75621;DHT22;64574;48.506;-2.750;2023-05-18T14:01:21;15.40;69.30
75621;DHT22;64574;48.506;-2.750;2023-05-18T14:03:46;15.50;70.10
75621;DHT22;64574;48.506;-2.750;2023-05-18T14:06:12;15.60;69.50
75621;DHT22;64574;48.506;-2.750;2023-05-18T14:08:37;15.70;69.50
75621;DHT22;64574;48.506;-2.750;2023-05-18T14:11:03;15.80;69.50
75621;DHT22;64574;48.506;-2.750;2023-05-18T14:13:29;16.10;67.80
75621;DHT22;64574;48.506;-2.750;2023-05-18T14:15:54;16.20;67.30
75621;DHT22;64574;48.506;-2.750;2023-05-18T14:18:20;16.20;67.30
75621;DHT22;64574;48.506;-2.750;2023-05-18T14:20:45;16.20;67.10
75621;DHT22;64574;48.506;-2.750;2023-05-18T14:23:12;16.20;66.60
75621;DHT22;64574;48.506;-2.750;2023-05-18T14:25:38;16.40;66.80
75621;DHT22;64574;48.506;-2.750;2023-05-18T14:28:04;16.40;65.30
75621;DHT22;64574;48.506;-2.750;2023-05-18T14:30:29;16.00;66.90
75621;DHT22;64574;48.506;-2.750;2023-05-18T14:32:55;16.20;67.80
75621;DHT22;64574;48.506;-2.750;2023-05-18T14:35:21;16.60;66.90
75621;DHT22;64574;48.506;-2.750;2023-05-18T14:37:46;16.70;66.90
75621;DHT22;64574;48.506;-2.750;2023-05-18T14:40:12;16.90;66.90
75621;DHT22;64574;48.506;-2.750;2023-05-18T14:42:37;16.80;67.30
75621;DHT22;64574;48.506;-2.750;2023-05-18T14:45:03;16.70;67.20
75621;DHT22;64574;48.506;-2.750;2023-05-18T14:47:29;17.00;66.80
75621;DHT22;64574;48.506;-2.750;2023-05-18T14:49:55;16.50;66.60
75621;DHT22;64574;48.506;-2.750;2023-05-18T14:52:20;16.60;67.20
75621;DHT22;64574;48.506;-2.750;2023-05-18T14:54:46;16.70;67.40
75621;DHT22;64574;48.506;-2.750;2023-05-18T14:57:12;17.00;66.30
75621;DHT22;64574;48.506;-2.750;2023-05-18T14:59:37;16.90;66.90
75621;DHT22;64574;48.506;-2.750;2023-05-18T15:02:03;16.70;67.10
75621;DHT22;64574;48.506;-2.750;2023-05-18T15:04:29;16.50;67.30
75621;DHT22;64574;48.506;-2.750;2023-05-18T15:06:54;16.50;67.40
75621;DHT22;64574;48.506;-2.750;2023-05-18T15:09:20;16.40;67.30
75621;DHT22;64574;48.506;-2.750;2023-05-18T15:11:46;16.50;67.00
75621;DHT22;64574;48.506;-2.750;2023-05-18T15:14:11;16.10;67.70
75621;DHT22;64574;48.506;-2.750;2023-05-18T15:16:37;16.30;67.80
75621;DHT22;64574;48.506;-2.750;2023-05-18T15:19:03;16.50;67.30
75621;DHT22;64574;48.506;-2.750;2023-05-18T15:21:29;16.70;66.00
75621;DHT22;64574;48.506;-2.750;2023-05-18T15:23:55;16.50;66.20
75621;DHT22;64574;48.506;-2.750;2023-05-18T15:26:20;16.70;65.70
75621;DHT22;64574;48.506;-2.750;2023-05-18T15:28:46;16.70;65.20
75621;DHT22;64574;48.506;-2.750;2023-05-18T15:31:12;16.60;66.10
75621;DHT22;64574;48.506;-2.750;2023-05-18T15:33:37;16.70;65.40
75621;DHT22;64574;48.506;-2.750;2023-05-18T15:36:07;16.80;64.60
75621;DHT22;64574;48.506;-2.750;2023-05-18T15:38:32;16.80;63.20
75621;DHT22;64574;48.506;-2.750;2023-05-18T15:40:58;17.00;62.10
75621;DHT22;64574;48.506;-2.750;2023-05-18T15:43:24;16.70;62.60
75621;DHT22;64574;48.506;-2.750;2023-05-18T15:45:50;16.60;63.20
75621;DHT22;64574;48.506;-2.750;2023-05-18T15:48:16;16.70;62.80